createdAt,value
2023-03-06T00:00:58.614Z,31.87
2023-03-06T00:03:26.645Z,34.08
2023-03-06T00:05:53.845Z,33.63
2023-03-06T00:08:20.631Z,35.45
2023-03-06T00:10:47.866Z,31.87
2023-03-06T00:13:16.170Z,28.43
2023-03-06T00:15:44.886Z,30.47
2023-03-06T00:18:13.845Z,32.55
2023-03-06T00:20:42.570Z,37.55
2023-03-06T00:23:10.518Z,33.10
2023-03-06T00:25:37.037Z,34.42
2023-03-06T00:28:05.719Z,28.23
2023-03-06T00:30:32.302Z,28.67
2023-03-06T00:32:59.290Z,27.20
2023-03-06T00:35:26.791Z,32.77
2023-03-06T00:37:53.389Z,35.13
2023-03-06T00:40:21.447Z,33.03
2023-03-06T00:42:48.383Z,30.33
2023-03-06T00:45:15.130Z,33.92
2023-03-06T00:47:41.958Z,31.10
2023-03-06T00:50:09.791Z,29.83
2023-03-06T00:52:36.263Z,37.28
2023-03-06T00:55:03.387Z,33.58
2023-03-06T00:57:29.843Z,31.57
2023-03-06T01:00:03.680Z,32.87
2023-03-06T01:02:30.180Z,30.97
2023-03-06T01:04:56.987Z,28.63
2023-03-06T01:07:24.968Z,37.20
2023-03-06T01:09:53.032Z,30.98
2023-03-06T01:12:23.639Z,31.33
2023-03-06T01:14:52.644Z,30.75
2023-03-06T01:17:19.018Z,26.17
2023-03-06T01:19:45.429Z,30.55
2023-03-06T01:22:12.253Z,27.03
2023-03-06T01:24:39.994Z,33.33
2023-03-06T01:27:09.317Z,29.50
2023-03-06T01:29:35.761Z,31.25
2023-03-06T01:32:02.395Z,28.30
2023-03-06T01:34:30.115Z,32.03
2023-03-06T01:36:56.492Z,29.40
2023-03-06T01:39:22.900Z,32.80
2023-03-06T01:41:49.628Z,31.80
2023-03-06T01:44:16.056Z,30.90
2023-03-06T01:46:44.540Z,27.67
2023-03-06T01:49:28.379Z,30.63
2023-03-06T01:52:03.479Z,27.00
2023-03-06T01:54:34.374Z,28.90
2023-03-06T01:59:32.598Z,25.93
2023-03-06T02:02:01.793Z,33.03
2023-03-06T02:04:29.705Z,31.98
2023-03-06T02:06:58.623Z,33.83
2023-03-06T02:09:26.624Z,29.40
2023-03-06T02:11:53.057Z,33.45
2023-03-06T02:14:19.762Z,33.40
2023-03-06T02:16:46.683Z,30.30
2023-03-06T02:19:27.496Z,29.08
2023-03-06T02:21:53.986Z,33.85
2023-03-06T02:24:29.716Z,31.87
2023-03-06T02:26:57.247Z,28.53
2023-03-06T02:29:27.520Z,29.53
2023-03-06T02:31:54.179Z,32.08
2023-03-06T02:34:20.982Z,34.07
2023-03-06T02:37:05.005Z,34.93
2023-03-06T02:39:33.930Z,30.67
2023-03-06T02:42:00.539Z,32.13
2023-03-06T02:44:27.800Z,33.60
2023-03-06T02:46:54.443Z,34.17
2023-03-06T02:49:21.222Z,29.57
2023-03-06T02:51:47.998Z,31.00
2023-03-06T02:54:14.733Z,33.40
2023-03-06T02:56:41.198Z,33.47
2023-03-06T02:59:07.666Z,33.27
2023-03-06T03:01:34.231Z,33.10
2023-03-06T03:04:00.954Z,33.80
2023-03-06T03:06:27.451Z,34.60
2023-03-06T03:08:54.797Z,29.73
2023-03-06T03:11:21.274Z,32.10
2023-03-06T03:13:47.945Z,35.50
2023-03-06T03:16:15.707Z,29.27
2023-03-06T03:18:42.885Z,35.57
2023-03-06T03:21:14.324Z,34.33
2023-03-06T03:23:40.957Z,32.67
2023-03-06T03:26:10.024Z,27.70
2023-03-06T03:28:36.981Z,31.00
2023-03-06T03:31:08.729Z,34.13
2023-03-06T03:33:35.531Z,31.77
2023-03-06T03:36:05.557Z,38.03
2023-03-06T03:38:32.224Z,32.50
2023-03-06T03:41:00.526Z,36.07
2023-03-06T03:43:27.081Z,32.87
2023-03-06T03:45:54.045Z,39.80
2023-03-06T03:48:20.892Z,39.77
2023-03-06T03:50:47.323Z,34.47
2023-03-06T03:53:13.718Z,33.33
2023-03-06T03:55:40.198Z,36.60
2023-03-06T03:58:06.744Z,32.73
2023-03-06T04:00:33.303Z,37.67
2023-03-06T04:02:59.821Z,35.27
2023-03-06T04:05:26.287Z,32.93
2023-03-06T04:07:52.943Z,38.53
2023-03-06T04:10:19.714Z,33.17
2023-03-06T04:12:46.159Z,35.67
2023-03-06T04:15:12.491Z,35.37
2023-03-06T04:17:39.109Z,37.40
2023-03-06T04:20:06.340Z,29.97
2023-03-06T04:22:32.876Z,30.07
2023-03-06T04:24:59.300Z,31.67
2023-03-06T04:27:25.789Z,34.38
2023-03-06T04:29:52.317Z,37.00
2023-03-06T04:32:21.326Z,32.23
2023-03-06T04:34:48.152Z,33.70
2023-03-06T04:37:20.753Z,31.90
2023-03-06T04:39:47.410Z,34.10
2023-03-06T04:42:14.093Z,36.87
2023-03-06T04:44:40.937Z,34.27
2023-03-06T04:47:07.981Z,35.43
2023-03-06T04:49:34.669Z,37.80
2023-03-06T04:52:01.224Z,38.87
2023-03-06T04:54:27.749Z,33.93
2023-03-06T04:56:54.351Z,36.33
2023-03-06T04:59:20.988Z,39.20
2023-03-06T05:01:47.803Z,41.40
2023-03-06T05:04:14.597Z,33.50
2023-03-06T05:06:41.007Z,37.30
2023-03-06T05:09:07.701Z,39.20
2023-03-06T05:11:34.107Z,37.77
2023-03-06T05:14:00.603Z,35.07
2023-03-06T05:16:27.115Z,38.33
2023-03-06T05:18:53.649Z,41.63
2023-03-06T05:21:20.135Z,33.63
2023-03-06T05:23:46.596Z,42.83
2023-03-06T05:26:14.779Z,35.73
2023-03-06T05:28:41.784Z,37.97
2023-03-06T05:31:09.272Z,35.77
2023-03-06T05:33:36.514Z,35.57
2023-03-06T05:36:03.848Z,35.83
2023-03-06T05:38:30.218Z,42.87
2023-03-06T05:40:56.629Z,41.57
2023-03-06T05:43:23.337Z,34.63
2023-03-06T05:45:49.875Z,34.25
2023-03-06T05:48:16.319Z,37.97
2023-03-06T05:50:43.322Z,45.67
2023-03-06T05:53:10.709Z,35.83
2023-03-06T05:55:37.502Z,41.43
2023-03-06T05:58:03.998Z,34.43
2023-03-06T06:00:30.502Z,37.53
2023-03-06T06:03:00.544Z,39.77
2023-03-06T06:05:27.106Z,37.40
2023-03-06T06:07:53.741Z,43.07
2023-03-06T06:10:20.171Z,39.47
2023-03-06T06:12:46.631Z,39.60
2023-03-06T06:15:12.997Z,39.23
2023-03-06T06:17:39.368Z,41.80
2023-03-06T06:20:06.518Z,40.13
2023-03-06T06:22:35.837Z,41.03
2023-03-06T06:25:02.319Z,41.10
2023-03-06T06:27:28.927Z,35.40
2023-03-06T06:29:55.426Z,34.57
2023-03-06T06:32:21.977Z,39.80
2023-03-06T06:34:48.375Z,36.20
2023-03-06T06:37:15.121Z,43.73
2023-03-06T06:39:41.878Z,35.67
2023-03-06T06:42:29.082Z,38.50
2023-03-06T06:44:56.011Z,41.97
2023-03-06T06:47:24.850Z,38.77
2023-03-06T06:49:53.752Z,40.13
2023-03-06T06:52:20.610Z,43.87
2023-03-06T06:54:47.795Z,34.93
2023-03-06T06:57:14.811Z,34.80
2023-03-06T06:59:41.457Z,39.87
2023-03-06T07:02:08.199Z,38.13
2023-03-06T07:04:34.678Z,33.50
2023-03-06T07:07:01.010Z,41.53
2023-03-06T07:09:27.664Z,39.63
2023-03-06T07:11:54.013Z,38.57
2023-03-06T07:14:20.526Z,37.97
2023-03-06T07:16:47.125Z,38.30
2023-03-06T07:19:13.862Z,36.53
2023-03-06T07:21:40.403Z,37.77
2023-03-06T07:24:07.174Z,36.60
2023-03-06T07:26:34.868Z,38.33
2023-03-06T07:29:02.142Z,42.30
2023-03-06T07:31:28.607Z,38.93
2023-03-06T07:33:55.922Z,44.17
2023-03-06T07:36:24.028Z,59.90
2023-03-06T07:38:50.505Z,45.07
2023-03-06T07:41:16.854Z,38.05
2023-03-06T07:43:45.356Z,38.85
2023-03-06T07:46:13.381Z,33.92
2023-03-06T07:48:40.862Z,34.03
2023-03-06T07:51:21.795Z,38.97
2023-03-06T07:56:16.217Z,36.67
2023-03-06T07:58:44.903Z,35.38
2023-03-06T08:01:15.037Z,33.90
2023-03-06T08:03:41.927Z,27.63
2023-03-06T08:06:17.734Z,31.47
2023-03-06T08:08:47.432Z,33.50
2023-03-06T08:11:15.791Z,36.87
2023-03-06T08:13:43.165Z,33.92
2023-03-06T08:16:10.780Z,30.47
2023-03-06T08:18:37.892Z,33.35
2023-03-06T08:21:06.414Z,33.27
2023-03-06T08:23:34.078Z,30.95
2023-03-06T08:26:03.336Z,32.95
2023-03-06T08:28:29.820Z,33.83
2023-03-06T08:30:57.580Z,35.03
2023-03-06T08:33:24.714Z,30.23
2023-03-06T08:35:52.760Z,31.10
2023-03-06T08:38:19.686Z,34.55
2023-03-06T08:40:46.142Z,30.30
2023-03-06T08:43:14.175Z,34.35
2023-03-06T08:45:41.129Z,34.88
2023-03-06T08:48:07.793Z,36.80
2023-03-06T08:50:34.215Z,37.70
2023-03-06T08:53:00.802Z,28.77
2023-03-06T08:55:27.736Z,30.60
2023-03-06T08:57:54.436Z,30.35
2023-03-06T09:00:21.245Z,28.75
2023-03-06T09:02:47.751Z,29.90
2023-03-06T09:05:14.175Z,23.77
2023-03-06T09:07:41.139Z,24.88
2023-03-06T09:10:08.784Z,24.60
2023-03-06T09:12:48.887Z,24.25
2023-03-06T09:17:44.089Z,24.80
2023-03-06T09:20:11.924Z,21.15
2023-03-06T09:22:38.334Z,19.40
2023-03-06T09:25:05.594Z,19.48
2023-03-06T09:27:32.228Z,20.90
2023-03-06T09:29:58.650Z,15.20
2023-03-06T09:32:26.005Z,21.10
2023-03-06T09:34:52.409Z,14.88
2023-03-06T09:37:19.167Z,15.23
2023-03-06T09:39:45.578Z,16.95
2023-03-06T09:42:21.786Z,21.90
2023-03-06T09:44:52.718Z,15.35
2023-03-06T09:50:25.418Z,14.13
2023-03-06T09:53:16.960Z,15.98
2023-03-06T09:55:48.913Z,16.90
2023-03-06T09:58:24.584Z,12.90
2023-03-06T10:01:09.683Z,13.00
2023-03-06T10:03:52.526Z,17.65
2023-03-06T10:06:33.383Z,15.27
2023-03-06T10:09:18.598Z,25.73
2023-03-06T10:11:53.367Z,17.30
2023-03-06T10:14:33.640Z,15.13
2023-03-06T10:17:01.841Z,14.48
2023-03-06T10:19:34.493Z,20.67
2023-03-06T10:22:28.726Z,16.13
2023-03-06T10:25:00.534Z,23.70
2023-03-06T10:27:46.771Z,13.35
2023-03-06T10:30:38.478Z,11.73
2023-03-06T10:33:24.971Z,13.77
2023-03-06T10:35:56.932Z,11.82
2023-03-06T10:38:33.568Z,23.15
2023-03-06T10:41:11.874Z,15.90
2023-03-06T10:43:44.162Z,12.18
2023-03-06T10:46:27.577Z,11.95
2023-03-06T10:49:00.127Z,10.93
2023-03-06T10:51:27.733Z,17.55
2023-03-06T10:54:01.512Z,19.15
2023-03-06T10:56:35.199Z,22.63
2023-03-06T10:59:18.557Z,11.05
2023-03-06T11:01:48.823Z,29.70
2023-03-06T11:04:31.658Z,13.98
2023-03-06T11:07:08.090Z,11.95
2023-03-06T11:09:35.515Z,20.75
2023-03-06T11:12:31.400Z,11.90
2023-03-06T11:15:07.137Z,8.30
2023-03-06T11:17:52.375Z,22.60
2023-03-06T11:20:23.863Z,12.32
2023-03-06T11:23:37.453Z,10.02
2023-03-06T11:26:24.393Z,11.00
2023-03-06T11:28:57.087Z,12.52
2023-03-06T11:31:35.228Z,11.90
2023-03-06T11:34:31.649Z,11.50
2023-03-06T11:37:07.335Z,13.10
2023-03-06T11:39:34.178Z,13.13
2023-03-06T11:42:37.208Z,11.43
2023-03-06T11:45:19.112Z,12.63
2023-03-06T11:48:18.120Z,15.65
2023-03-06T11:50:48.070Z,12.15
2023-03-06T11:53:31.691Z,14.50
2023-03-06T11:56:20.926Z,10.75
2023-03-06T11:59:08.001Z,12.48
2023-03-06T12:01:40.614Z,16.02
2023-03-06T12:04:19.092Z,15.32
2023-03-06T12:07:00.663Z,12.65
2023-03-06T12:09:42.481Z,14.57
2023-03-06T12:12:18.450Z,11.85
2023-03-06T12:14:54.978Z,14.00
2023-03-06T12:17:56.943Z,13.05
2023-03-06T12:20:40.256Z,14.25
2023-03-06T12:23:28.592Z,13.27
2023-03-06T12:26:03.007Z,14.85
2023-03-06T12:28:51.506Z,11.88
2023-03-06T12:31:30.970Z,11.93
2023-03-06T12:34:06.024Z,11.77
2023-03-06T12:36:48.683Z,10.93
2023-03-06T12:39:52.823Z,8.88
2023-03-06T12:42:39.746Z,11.85
2023-03-06T12:45:21.294Z,10.57
2023-03-06T12:47:52.740Z,11.20
2023-03-06T12:50:24.103Z,12.15
2023-03-06T12:52:53.672Z,13.43
2023-03-06T12:55:24.967Z,11.30
2023-03-06T12:57:52.571Z,10.98
2023-03-06T13:00:34.374Z,9.13
2023-03-06T13:03:17.992Z,24.20
2023-03-06T13:05:47.401Z,16.13
2023-03-06T13:08:43.218Z,16.42
2023-03-06T13:11:26.597Z,23.90
2023-03-06T13:13:54.977Z,17.05
2023-03-06T13:16:28.940Z,12.90
2023-03-06T13:19:19.285Z,12.93
2023-03-06T13:21:54.732Z,9.25
2023-03-06T13:24:26.892Z,13.32
2023-03-06T13:26:55.389Z,12.13
2023-03-06T13:29:37.035Z,24.98
2023-03-06T13:32:04.948Z,20.38
2023-03-06T13:34:31.332Z,13.48
2023-03-06T13:37:17.039Z,11.07
2023-03-06T13:39:52.433Z,15.90
2023-03-06T13:42:36.520Z,10.88
2023-03-06T13:45:16.390Z,14.20
2023-03-06T13:48:10.986Z,18.55
2023-03-06T13:50:39.892Z,11.65
2023-03-06T13:55:54.381Z,11.93
2023-03-06T13:58:45.718Z,19.83
2023-03-06T14:01:51.481Z,12.88
2023-03-06T14:04:36.551Z,13.25
2023-03-06T14:07:05.610Z,9.82
2023-03-06T14:09:37.449Z,16.07
2023-03-06T14:12:17.098Z,13.23
2023-03-06T14:14:49.761Z,34.67
2023-03-06T14:17:31.815Z,12.43
2023-03-06T14:20:05.422Z,15.70
2023-03-06T14:22:31.861Z,11.43
2023-03-06T14:25:27.377Z,11.32
2023-03-06T14:28:02.899Z,11.05
2023-03-06T14:30:32.325Z,14.60
2023-03-06T14:32:59.124Z,11.52
2023-03-06T14:35:32.280Z,12.95
2023-03-06T14:38:04.398Z,11.00
2023-03-06T14:40:34.054Z,12.30
2023-03-06T14:43:37.195Z,15.20
2023-03-06T14:46:05.523Z,17.48
2023-03-06T14:48:44.761Z,12.02
2023-03-06T14:51:21.712Z,16.27
2023-03-06T14:53:50.368Z,17.60
2023-03-06T14:56:25.923Z,9.57
2023-03-06T14:58:58.890Z,14.35
2023-03-06T15:01:42.265Z,15.32
2023-03-06T15:04:23.463Z,9.55
2023-03-06T15:06:50.536Z,10.32
2023-03-06T15:09:19.594Z,13.52
2023-03-06T15:11:54.855Z,15.27
2023-03-06T15:14:29.511Z,13.90
2023-03-06T15:16:55.868Z,12.73
2023-03-06T15:19:23.438Z,16.10
2023-03-06T15:21:52.057Z,17.05
2023-03-06T15:24:35.379Z,17.27
2023-03-06T15:27:05.454Z,14.18
2023-03-06T15:29:32.862Z,10.70
2023-03-06T15:32:29.619Z,12.43
2023-03-06T15:35:24.799Z,13.68
2023-03-06T15:37:52.156Z,13.27
2023-03-06T15:40:20.379Z,13.50
2023-03-06T15:42:47.185Z,12.73
2023-03-06T15:45:25.418Z,9.63
2023-03-06T15:47:54.076Z,11.45
2023-03-06T15:50:27.186Z,14.82
2023-03-06T15:52:54.151Z,12.02
2023-03-06T15:55:23.977Z,17.08
2023-03-06T15:58:00.573Z,13.90
2023-03-06T16:00:33.221Z,14.93
2023-03-06T16:03:00.631Z,13.23
2023-03-06T16:05:27.864Z,17.35
2023-03-06T16:07:54.791Z,13.23
2023-03-06T16:10:27.546Z,11.82
2023-03-06T16:13:01.386Z,12.25
2023-03-06T16:15:30.642Z,13.40
2023-03-06T16:17:57.750Z,14.88
2023-03-06T16:20:29.155Z,12.10
2023-03-06T16:22:56.661Z,13.27
2023-03-06T16:25:26.388Z,14.65
2023-03-06T16:27:58.169Z,11.82
2023-03-06T16:30:30.205Z,14.52
2023-03-06T16:32:57.786Z,13.40
2023-03-06T16:35:24.914Z,17.33
2023-03-06T16:37:51.453Z,16.75
2023-03-06T16:40:28.349Z,14.20
2023-03-06T16:42:55.772Z,13.73
2023-03-06T16:45:25.013Z,11.13
2023-03-06T16:47:51.885Z,12.10
2023-03-06T16:50:24.403Z,14.43
2023-03-06T16:52:52.998Z,13.30
2023-03-06T16:55:20.064Z,14.55
2023-03-06T16:57:46.719Z,12.43
2023-03-06T17:00:14.628Z,17.13
2023-03-06T17:02:42.595Z,13.07
2023-03-06T17:05:11.139Z,13.40
2023-03-06T17:07:38.327Z,15.85
2023-03-06T17:10:07.277Z,12.02
2023-03-06T17:12:33.956Z,12.35
2023-03-06T17:15:00.488Z,12.82
2023-03-06T17:17:27.235Z,14.23
2023-03-06T17:19:54.032Z,17.15
2023-03-06T17:22:21.277Z,18.83
2023-03-06T17:24:48.167Z,17.17
2023-03-06T17:27:14.754Z,15.75
2023-03-06T17:29:41.435Z,16.33
2023-03-06T17:32:09.687Z,17.40
2023-03-06T17:34:36.435Z,16.98
2023-03-06T17:37:03.015Z,14.90
2023-03-06T17:39:38.052Z,21.02
2023-03-06T17:42:05.654Z,15.85
2023-03-06T17:44:33.513Z,16.00
2023-03-06T17:47:00.127Z,16.20
2023-03-06T17:49:27.026Z,21.83
2023-03-06T17:51:54.550Z,15.55
2023-03-06T17:54:21.734Z,16.20
2023-03-06T17:56:48.252Z,13.82
2023-03-06T17:59:14.916Z,14.40
2023-03-06T18:01:41.453Z,14.70
2023-03-06T18:04:08.056Z,14.90
2023-03-06T18:06:34.509Z,16.55
2023-03-06T18:09:01.071Z,17.70
2023-03-06T18:11:27.969Z,17.13
2023-03-06T18:13:54.514Z,17.45
2023-03-06T18:16:23.396Z,15.35
2023-03-06T18:18:54.423Z,20.58
2023-03-06T18:21:22.415Z,18.30
2023-03-06T18:23:49.248Z,15.48
2023-03-06T18:26:19.057Z,16.55
2023-03-06T18:28:49.138Z,15.40
2023-03-06T18:31:17.478Z,18.13
2023-03-06T18:33:44.450Z,19.80
2023-03-06T18:36:11.424Z,18.55
2023-03-06T18:38:37.843Z,16.90
2023-03-06T18:41:07.414Z,19.08
2023-03-06T18:43:35.477Z,18.33
2023-03-06T18:46:02.244Z,16.70
2023-03-06T18:48:28.969Z,19.35
2023-03-06T18:50:56.113Z,18.55
2023-03-06T18:53:23.428Z,17.27
2023-03-06T18:55:51.550Z,15.00
2023-03-06T18:58:19.441Z,22.08
2023-03-06T19:00:46.248Z,15.43
2023-03-06T19:03:12.739Z,18.00
2023-03-06T19:05:44.163Z,18.15
2023-03-06T19:08:11.253Z,20.85
2023-03-06T19:10:40.390Z,17.52
2023-03-06T19:13:08.654Z,18.58
2023-03-06T19:15:35.466Z,23.83
2023-03-06T19:18:01.855Z,25.40
2023-03-06T19:20:28.579Z,18.40
2023-03-06T19:22:55.039Z,18.77
2023-03-06T19:25:21.441Z,17.98
2023-03-06T19:27:49.730Z,21.00
2023-03-06T19:30:21.439Z,18.40
2023-03-06T19:32:48.268Z,19.83
2023-03-06T19:35:14.916Z,20.25
2023-03-06T19:37:41.372Z,17.00
2023-03-06T19:40:08.684Z,16.92
2023-03-06T19:42:35.380Z,19.63
2023-03-06T19:45:02.140Z,18.38
2023-03-06T19:47:28.623Z,17.50
2023-03-06T19:49:55.063Z,17.67
2023-03-06T19:52:21.498Z,15.48
2023-03-06T19:54:48.004Z,20.77
2023-03-06T19:57:14.970Z,20.25
2023-03-06T19:59:41.585Z,16.08
2023-03-06T20:02:10.595Z,17.42
2023-03-06T20:04:37.109Z,19.90
2023-03-06T20:07:04.130Z,17.60
2023-03-06T20:09:32.078Z,19.88
2023-03-06T20:11:59.932Z,21.27
2023-03-06T20:14:26.481Z,19.73
2023-03-06T20:16:53.153Z,17.25
2023-03-06T20:19:19.668Z,19.77
2023-03-06T20:21:46.165Z,17.98
2023-03-06T20:24:14.905Z,16.75
2023-03-06T20:26:41.825Z,19.58
2023-03-06T20:29:08.296Z,16.08
2023-03-06T20:31:36.723Z,18.85
2023-03-06T20:34:04.331Z,17.27
2023-03-06T20:36:34.012Z,18.48
2023-03-06T20:39:01.495Z,17.73
2023-03-06T20:41:30.174Z,18.00
2023-03-06T20:43:58.525Z,18.38
2023-03-06T20:46:25.868Z,17.98
2023-03-06T20:48:53.315Z,20.50
2023-03-06T20:51:21.291Z,17.33
2023-03-06T20:53:49.347Z,19.00
2023-03-06T20:56:18.761Z,18.85
2023-03-06T20:58:45.381Z,17.23
2023-03-06T21:01:42.538Z,17.67
2023-03-06T21:04:10.597Z,19.33
2023-03-06T21:06:38.080Z,16.63
2023-03-06T21:09:06.913Z,19.45
2023-03-06T21:11:36.190Z,16.33
2023-03-06T21:14:02.726Z,17.63
2023-03-06T21:16:29.959Z,17.75
2023-03-06T21:18:58.170Z,15.88
2023-03-06T21:21:28.859Z,18.92
2023-03-06T21:23:55.368Z,18.13
2023-03-06T21:26:24.294Z,17.52
2023-03-06T21:28:50.995Z,16.92
2023-03-06T21:31:19.645Z,18.70
2023-03-06T21:33:47.325Z,18.95
2023-03-06T21:36:14.116Z,17.02
2023-03-06T21:38:40.627Z,21.13
2023-03-06T21:41:10.452Z,16.88
2023-03-06T21:43:36.933Z,19.55
2023-03-06T21:46:03.498Z,18.92
2023-03-06T21:48:30.034Z,22.10
2023-03-06T21:51:11.189Z,19.77
2023-03-06T21:53:38.576Z,17.60
2023-03-06T21:56:05.721Z,19.90
2023-03-06T21:58:33.458Z,19.17
2023-03-06T22:01:00.260Z,19.55
2023-03-06T22:03:27.684Z,19.83
2023-03-06T22:05:54.633Z,15.52
2023-03-06T22:08:21.167Z,19.98
2023-03-06T22:10:48.849Z,20.92
2023-03-06T22:13:16.012Z,21.42
2023-03-06T22:15:50.608Z,17.58
2023-03-06T22:18:17.444Z,20.33
2023-03-06T22:20:44.199Z,21.92
2023-03-06T22:23:10.934Z,20.02
2023-03-06T22:25:37.457Z,18.17
2023-03-06T22:28:04.034Z,19.27
2023-03-06T22:30:30.737Z,17.45
2023-03-06T22:32:58.301Z,18.08
2023-03-06T22:35:25.339Z,19.17
2023-03-06T22:37:52.123Z,19.80
2023-03-06T22:40:18.584Z,19.15
2023-03-06T22:42:45.246Z,18.38
2023-03-06T22:45:12.325Z,20.20
2023-03-06T22:47:39.348Z,18.25
2023-03-06T22:50:06.551Z,20.52
2023-03-06T22:52:33.590Z,18.27
2023-03-06T22:55:00.435Z,22.65
2023-03-06T22:57:27.258Z,19.25
2023-03-06T22:59:54.102Z,18.88
2023-03-06T23:02:20.929Z,21.30
2023-03-06T23:04:50.721Z,19.77
2023-03-06T23:07:17.217Z,20.23
2023-03-06T23:09:43.715Z,18.42
2023-03-06T23:12:10.154Z,17.02
2023-03-06T23:14:37.234Z,19.23
2023-03-06T23:17:04.136Z,18.58
2023-03-06T23:19:30.702Z,17.88
2023-03-06T23:21:57.511Z,19.45
2023-03-06T23:24:24.266Z,18.52
2023-03-06T23:26:51.469Z,17.60
2023-03-06T23:29:17.945Z,20.80
2023-03-06T23:31:44.425Z,17.13
2023-03-06T23:34:11.008Z,17.90
2023-03-06T23:36:37.804Z,19.73
2023-03-06T23:39:04.310Z,20.80
2023-03-06T23:41:31.148Z,18.85
2023-03-06T23:43:58.726Z,18.60
2023-03-06T23:46:25.807Z,19.92
2023-03-06T23:48:52.612Z,20.63
2023-03-06T23:51:21.695Z,16.80
2023-03-06T23:53:56.242Z,17.92
2023-03-06T23:56:24.451Z,19.98
2023-03-06T23:58:51.325Z,18.55
